Anguilla, Mississippi
Current Conditions -  °F | °C
As of 6:53 PM on Wednesday 26 Nov 2014 (Local Time) from KGLH Reporting Station
Clear Clear  
Wind Chill: 51°   Ceiling: Unl
Heat Index: 51°   Visibility: 10mi
Dew Point: 35°   Wind: 6mph
Humidity: 54%   Direction: 270°W
Pressure: 30.16"   Gusts: NA
Location:  32.97°N, 90.82°W
Report Text: KGLH 270053Z AUTO 27005KT 10SM CLR 11/02 A3016 RMK AO2 SLP222 T01060017
Loading
Personal Weather Stations






























Interactive Weather Map New forecast layout! Learn more

10-Day Weather Forecast

Advertisements
Track Severe Weather on mobile